Time;durP1;ratioP1;P1;durP2;ratioP2;P2;SDS_P1;SDS_P2;PMS_P1;PMS_P2;Temp;Humidity;BMP_temperature;BMP_pressure;BME280_temperature;BME280_humidity;BME280_pressure;Samples;Min_cycle;Max_cycle;Signal;HPM_P1;HPM_P2
2023/12/02 00:00:24;;;;;;;38.72;19.85;;;0.00;99.90;;;;;;7382257;19;20073;-69
2023/12/02 00:02:55;;;;;;;49.15;22.30;;;0.00;99.90;;;;;;7381596;19;20010;-69
2023/12/02 00:05:28;;;;;;;40.92;19.85;;;0.10;99.90;;;;;;7377140;19;20018;-69
2023/12/02 00:07:58;;;;;;;44.40;22.10;;;0.00;99.90;;;;;;7376670;19;20582;-70
2023/12/02 00:10:28;;;;;;;45.58;21.55;;;0.00;99.90;;;;;;7380562;19;20569;-70
2023/12/02 00:12:58;;;;;;;38.90;19.35;;;0.00;99.90;;;;;;7380352;19;20043;-69
2023/12/02 00:15:28;;;;;;;46.33;20.85;;;0.00;99.90;;;;;;7380643;19;20010;-69
2023/12/02 00:17:58;;;;;;;39.10;20.33;;;0.00;99.90;;;;;;7380332;19;20016;-69
2023/12/02 00:20:30;;;;;;;49.25;19.98;;;0.00;99.90;;;;;;7379418;19;20471;-69
2023/12/02 00:23:00;;;;;;;45.65;22.17;;;0.00;99.90;;;;;;7377505;19;20014;-69
2023/12/02 00:25:31;;;;;;;41.70;19.40;;;0.00;99.90;;;;;;7376814;19;20035;-69
2023/12/02 00:28:01;;;;;;;48.72;22.40;;;-0.10;99.90;;;;;;7379922;19;20010;-69
2023/12/02 00:30:31;;;;;;;45.00;21.45;;;-0.10;99.90;;;;;;7382478;19;20044;-68
2023/12/02 00:33:01;;;;;;;44.95;21.85;;;-0.10;99.90;;;;;;7393945;19;20011;-68
2023/12/02 00:35:33;;;;;;;40.78;19.40;;;-0.10;99.90;;;;;;7382934;19;20015;-68
2023/12/02 00:38:03;;;;;;;38.25;19.63;;;-0.10;99.90;;;;;;7379725;19;20006;-69
2023/12/02 00:40:33;;;;;;;42.58;21.10;;;-0.10;99.90;;;;;;7379314;19;20036;-68
2023/12/02 00:43:03;;;;;;;42.80;20.63;;;-0.10;99.90;;;;;;7378974;19;20006;-71
2023/12/02 00:45:33;;;;;;;44.35;21.25;;;-0.10;99.90;;;;;;7377851;19;20017;-68
2023/12/02 00:48:04;;;;;;;44.53;21.10;;;-0.10;99.90;;;;;;7378345;19;20020;-69
2023/12/02 00:50:36;;;;;;;43.95;20.15;;;-0.10;99.90;;;;;;7379557;19;20018;-68
2023/12/02 00:53:06;;;;;;;44.25;20.75;;;-0.10;99.90;;;;;;7375931;19;20019;-69
2023/12/02 00:55:36;;;;;;;42.10;20.35;;;-0.10;99.90;;;;;;7377870;19;20035;-69
2023/12/02 00:58:06;;;;;;;41.78;20.50;;;-0.10;99.90;;;;;;7379102;19;20463;-69
2023/12/02 01:00:36;;;;;;;41.78;19.98;;;-0.20;99.90;;;;;;7380148;19;20041;-68
2023/12/02 01:03:08;;;;;;;42.55;21.00;;;-0.20;99.90;;;;;;7379647;19;20078;-69
2023/12/02 01:05:40;;;;;;;45.25;21.90;;;-0.10;99.90;;;;;;7377397;19;20094;-69
2023/12/02 01:08:10;;;;;;;46.28;21.10;;;-0.10;99.90;;;;;;7379859;19;20077;-70
2023/12/02 01:10:40;;;;;;;43.70;21.60;;;-0.20;99.90;;;;;;7378271;19;20014;-69
2023/12/02 01:13:10;;;;;;;43.60;20.65;;;-0.20;99.90;;;;;;7379716;19;20021;-68
2023/12/02 01:15:40;;;;;;;44.95;21.15;;;-0.20;99.90;;;;;;7376356;19;20155;-69
2023/12/02 01:18:10;;;;;;;38.58;20.23;;;-0.20;99.90;;;;;;7378793;19;20014;-68
2023/12/02 01:20:44;;;;;;;42.10;19.95;;;-0.20;99.90;;;;;;7379125;19;20692;-68
2023/12/02 01:23:14;;;;;;;45.22;20.75;;;-0.30;99.90;;;;;;7378482;19;20011;-69
2023/12/02 01:25:44;;;;;;;46.15;21.05;;;-0.30;99.90;;;;;;7375606;19;20038;-68
2023/12/02 01:28:14;;;;;;;49.20;23.00;;;-0.30;99.90;;;;;;7378343;19;20018;-69
2023/12/02 01:30:45;;;;;;;41.65;19.90;;;-0.20;99.90;;;;;;7378932;19;20007;-69
2023/12/02 01:33:16;;;;;;;43.80;18.75;;;-0.30;99.90;;;;;;7378266;19;20019;-69
2023/12/02 01:35:48;;;;;;;43.80;20.60;;;-0.30;99.90;;;;;;7376676;19;20479;-69
2023/12/02 01:38:18;;;;;;;41.72;19.90;;;-0.30;99.90;;;;;;7378730;19;20078;-69
2023/12/02 01:40:48;;;;;;;41.33;20.52;;;-0.30;99.90;;;;;;7378569;19;20014;-70
2023/12/02 01:43:25;;;;;;;51.33;22.42;;;-0.30;99.90;;;;;;7377976;19;20048;-69
2023/12/02 01:45:56;;;;;;;43.90;19.80;;;-0.30;99.90;;;;;;7377084;19;20014;-69
2023/12/02 01:48:31;;;;;;;51.10;21.65;;;-0.30;99.90;;;;;;7378121;19;20121;-69
2023/12/02 01:51:05;;;;;;;45.38;20.38;;;-0.30;99.90;;;;;;7377719;19;20011;-68
2023/12/02 01:53:35;;;;;;;47.05;19.98;;;-0.40;99.90;;;;;;7375438;19;20039;-68
2023/12/02 01:56:06;;;;;;;45.28;20.45;;;-0.40;99.90;;;;;;7377045;19;20096;-68
2023/12/02 01:58:38;;;;;;;44.45;20.40;;;-0.30;99.90;;;;;;7377326;19;20829;-69
2023/12/02 02:01:08;;;;;;;42.20;19.20;;;-0.30;99.90;;;;;;7378219;19;20494;-69
2023/12/02 02:03:38;;;;;;;46.42;20.58;;;-0.40;99.90;;;;;;7376525;19;20070;-69
2023/12/02 02:06:12;;;;;;;45.20;21.52;;;-0.40;99.90;;;;;;7377534;19;20006;-69
2023/12/02 02:08:42;;;;;;;41.55;18.58;;;-0.40;99.90;;;;;;7375860;19;20375;-69
2023/12/02 02:11:12;;;;;;;41.90;20.65;;;-0.50;99.90;;;;;;7376843;19;20351;-68
2023/12/02 02:13:42;;;;;;;45.10;20.67;;;-0.40;99.90;;;;;;7375714;19;20018;-70
2023/12/02 02:16:12;;;;;;;43.83;19.42;;;-0.40;99.90;;;;;;7375206;19;20014;-68
2023/12/02 02:18:42;;;;;;;43.80;21.15;;;-0.50;99.90;;;;;;7376665;19;20486;-69
2023/12/02 02:21:38;;;;;;;46.72;20.42;;;-0.50;99.90;;;;;;7376421;19;20035;-69
2023/12/02 02:24:08;;;;;;;;;;;-0.50;99.90;;;;;;7373792;19;20070;-68
2023/12/02 02:26:38;;;;;;;42.42;18.30;;;-0.50;99.90;;;;;;7376430;19;20589;-69
2023/12/02 02:29:08;;;;;;;46.38;20.38;;;-0.50;99.90;;;;;;7376726;19;20018;-68
2023/12/02 02:31:38;;;;;;;41.03;19.63;;;-0.50;99.90;;;;;;7376239;19;20014;-69
2023/12/02 02:34:08;;;;;;;42.88;19.73;;;-0.50;99.90;;;;;;7376572;19;20578;-70
2023/12/02 02:36:41;;;;;;;43.40;20.75;;;-0.60;99.90;;;;;;7378238;19;20008;-69
2023/12/02 02:39:11;;;;;;;43.25;19.15;;;-0.60;99.90;;;;;;7377944;19;20419;-69
2023/12/02 02:41:41;;;;;;;45.83;21.67;;;-0.60;99.90;;;;;;7377687;19;20018;-69
2023/12/02 02:44:11;;;;;;;39.47;19.95;;;-0.60;99.90;;;;;;7377312;19;20347;-70
2023/12/02 02:46:41;;;;;;;46.95;21.98;;;-0.60;99.90;;;;;;7376278;19;20077;-69
2023/12/02 02:49:11;;;;;;;42.85;21.17;;;-0.60;99.90;;;;;;7377663;19;20038;-68
2023/12/02 02:51:44;;;;;;;44.17;18.90;;;-0.70;99.90;;;;;;7397265;19;20039;-69
2023/12/02 02:54:14;;;;;;;51.08;22.50;;;-0.70;99.90;;;;;;7382434;19;20383;-67
2023/12/02 02:56:45;;;;;;;38.92;18.67;;;-0.70;99.90;;;;;;7375506;19;20027;-68
2023/12/02 02:59:16;;;;;;;43.92;18.38;;;-0.70;99.90;;;;;;7375688;19;20330;-68
2023/12/02 03:01:48;;;;;;;43.80;20.77;;;-0.60;99.90;;;;;;7375577;19;20010;-69
2023/12/02 03:04:18;;;;;;;43.00;22.30;;;-0.70;99.90;;;;;;7373850;19;20031;-70
2023/12/02 03:06:51;;;;;;;43.30;19.75;;;-0.70;99.90;;;;;;7375075;19;20010;-68
2023/12/02 03:09:22;;;;;;;45.47;21.38;;;-0.70;99.90;;;;;;7375871;19;20469;-68
2023/12/02 03:11:52;;;;;;;46.63;20.73;;;-0.70;99.90;;;;;;7376564;19;20050;-68
2023/12/02 03:14:22;;;;;;;46.10;21.40;;;-0.70;99.90;;;;;;7374978;19;20011;-68
2023/12/02 03:16:52;;;;;;;45.90;20.65;;;-0.70;99.90;;;;;;7378668;19;20018;-69
2023/12/02 03:19:23;;;;;;;42.47;20.15;;;-0.70;99.90;;;;;;7382480;19;20048;-68
2023/12/02 03:21:56;;;;;;;48.17;19.35;;;-0.70;99.90;;;;;;7382079;19;20007;-68
2023/12/02 03:24:26;;;;;;;41.70;19.88;;;-0.70;99.90;;;;;;7382358;19;20340;-68
2023/12/02 03:26:56;;;;;;;41.15;18.20;;;-0.60;99.90;;;;;;7382135;19;20011;-69
2023/12/02 03:29:26;;;;;;;42.75;19.25;;;-0.60;99.90;;;;;;7383096;19;20024;-68
2023/12/02 03:31:56;;;;;;;42.08;19.67;;;-0.60;99.90;;;;;;7382939;19;20011;-68
2023/12/02 03:34:26;;;;;;;46.60;20.75;;;-0.60;99.90;;;;;;7382506;19;20017;-69
2023/12/02 03:36:59;;;;;;;44.50;20.15;;;-0.60;99.90;;;;;;7382451;19;20340;-68
2023/12/02 03:39:29;;;;;;;48.58;21.35;;;-0.60;99.90;;;;;;7382583;19;20014;-69
2023/12/02 03:41:59;;;;;;;38.67;18.20;;;-0.60;99.90;;;;;;7382982;19;20039;-68
2023/12/02 03:44:32;;;;;;;44.92;21.02;;;-0.60;99.90;;;;;;7380963;19;20569;-69
2023/12/02 03:47:03;;;;;;;44.20;20.70;;;-0.60;99.90;;;;;;7380686;19;20026;-69
2023/12/02 03:49:33;;;;;;;43.92;20.88;;;-0.70;99.90;;;;;;7381528;19;20086;-68
2023/12/02 03:52:06;;;;;;;42.00;19.85;;;-0.60;99.90;;;;;;7381348;19;20452;-69
2023/12/02 03:54:36;;;;;;;39.38;19.58;;;-0.60;99.90;;;;;;7382675;19;20114;-69
2023/12/02 03:57:07;;;;;;;43.58;20.48;;;-0.60;99.90;;;;;;7379432;19;20018;-69
2023/12/02 03:59:37;;;;;;;39.20;18.45;;;-0.60;99.90;;;;;;7382307;19;20014;-69
2023/12/02 04:02:07;;;;;;;40.58;19.35;;;-0.70;99.90;;;;;;7380531;19;20039;-69
2023/12/02 04:04:38;;;;;;;39.15;19.45;;;-0.70;99.90;;;;;;7382922;19;20014;-69
2023/12/02 04:07:11;;;;;;;40.45;20.38;;;-0.70;99.90;;;;;;7381408;19;20009;-68
2023/12/02 04:09:41;;;;;;;39.67;19.63;;;-0.70;99.90;;;;;;7383968;19;20097;-68
2023/12/02 04:12:11;;;;;;;36.05;19.40;;;-0.80;99.90;;;;;;7383146;19;20467;-68
2023/12/02 04:14:41;;;;;;;40.35;19.23;;;-0.70;99.90;;;;;;7380011;19;20688;-69
2023/12/02 04:17:11;;;;;;;38.95;19.13;;;-0.70;99.90;;;;;;7382122;19;20017;-68
2023/12/02 04:19:42;;;;;;;36.20;18.55;;;-0.70;99.90;;;;;;7382127;19;20002;-69
2023/12/02 04:22:15;;;;;;;40.33;19.98;;;-0.80;99.90;;;;;;7381928;19;20025;-70
2023/12/02 04:24:45;;;;;;;39.67;18.08;;;-0.80;99.90;;;;;;7380335;19;20035;-69
2023/12/02 04:27:15;;;;;;;36.88;18.00;;;-0.70;99.90;;;;;;7379909;19;20007;-69
2023/12/02 04:29:45;;;;;;;36.60;18.08;;;-0.80;99.90;;;;;;7381751;19;20518;-68
2023/12/02 04:32:15;;;;;;;40.28;19.42;;;-0.80;99.90;;;;;;7378783;19;20032;-68
2023/12/02 04:34:45;;;;;;;41.50;20.30;;;-0.80;99.90;;;;;;7379625;19;20015;-69
2023/12/02 04:37:18;;;;;;;37.97;19.02;;;-0.80;99.90;;;;;;7381115;19;20036;-69
2023/12/02 04:39:48;;;;;;;42.47;19.75;;;-0.80;99.90;;;;;;7380853;19;20077;-69
2023/12/02 04:42:18;;;;;;;40.10;19.25;;;-0.80;99.90;;;;;;7380642;19;20015;-69
2023/12/02 04:44:48;;;;;;;41.35;19.48;;;-0.80;99.90;;;;;;7379901;19;20089;-68
2023/12/02 04:47:18;;;;;;;45.85;19.63;;;-0.70;99.90;;;;;;7378509;19;20457;-68
2023/12/02 04:49:48;;;;;;;39.83;18.98;;;-0.80;99.90;;;;;;7379568;19;20011;-68
2023/12/02 04:52:21;;;;;;;39.85;18.52;;;-0.80;99.90;;;;;;7380073;19;20513;-68
2023/12/02 04:54:51;;;;;;;39.70;18.42;;;-0.80;99.90;;;;;;7379528;19;20459;-69
2023/12/02 04:57:21;;;;;;;39.15;18.42;;;-0.80;99.90;;;;;;7378046;19;20385;-69
2023/12/02 04:59:51;;;;;;;45.22;20.40;;;-0.80;99.90;;;;;;7379336;19;20017;-68
2023/12/02 05:02:21;;;;;;;34.38;18.25;;;-0.80;99.90;;;;;;7380496;19;20011;-69
2023/12/02 05:04:52;;;;;;;44.35;20.05;;;-0.80;99.90;;;;;;7380283;19;20002;-69
2023/12/02 05:07:24;;;;;;;39.03;19.83;;;-0.90;99.90;;;;;;7378782;19;20035;-69
2023/12/02 05:09:54;;;;;;;39.70;19.42;;;-0.80;99.90;;;;;;7394156;19;20011;-68
2023/12/02 05:12:24;;;;;;;39.20;20.48;;;-0.80;99.90;;;;;;7394688;19;20025;-68
2023/12/02 05:14:54;;;;;;;41.13;19.95;;;-0.80;99.90;;;;;;7378572;19;20426;-69
2023/12/02 05:17:25;;;;;;;34.00;18.17;;;-0.90;99.90;;;;;;7379830;19;20013;-69
2023/12/02 05:19:57;;;;;;;38.90;18.50;;;-0.80;99.90;;;;;;7380035;19;20006;-69
2023/12/02 05:22:30;;;;;;;34.13;18.48;;;-0.80;99.90;;;;;;7378232;19;20372;-69
2023/12/02 05:25:00;;;;;;;35.22;19.00;;;-0.80;99.90;;;;;;7379013;19;20359;-69
2023/12/02 05:27:30;;;;;;;34.45;18.17;;;-0.80;99.90;;;;;;7378675;19;20003;-69
2023/12/02 05:30:00;;;;;;;37.85;17.83;;;-0.90;99.90;;;;;;7379320;19;20036;-69
2023/12/02 05:32:31;;;;;;;35.70;17.63;;;-0.80;99.90;;;;;;7379621;19;20003;-69
2023/12/02 05:35:01;;;;;;;38.83;16.65;;;-0.90;99.90;;;;;;7380563;19;20003;-69
2023/12/02 05:37:33;;;;;;;36.30;17.77;;;-0.90;99.90;;;;;;7378547;19;20623;-69
2023/12/02 05:40:04;;;;;;;39.08;18.70;;;-0.90;99.90;;;;;;7376637;19;20021;-70
2023/12/02 05:42:34;;;;;;;34.15;17.27;;;-0.90;99.90;;;;;;7378160;19;20012;-70
2023/12/02 05:45:05;;;;;;;40.83;19.63;;;-0.90;99.90;;;;;;7378907;19;20064;-70
2023/12/02 05:47:35;;;;;;;34.47;17.88;;;-0.90;99.90;;;;;;7378295;19;20018;-69
2023/12/02 05:50:06;;;;;;;36.30;17.23;;;-0.90;99.90;;;;;;7378863;19;20023;-69
2023/12/02 05:52:39;;;;;;;34.17;17.02;;;-0.90;99.90;;;;;;7378597;19;20040;-69
2023/12/02 05:55:10;;;;;;;39.15;19.45;;;-0.90;99.90;;;;;;7376876;19;20027;-69
2023/12/02 05:57:40;;;;;;;38.53;18.33;;;-0.80;99.90;;;;;;7377018;19;20018;-69
2023/12/02 06:00:11;;;;;;;42.22;20.10;;;-0.90;99.90;;;;;;7376982;19;20043;-69
2023/12/02 06:02:41;;;;;;;43.90;19.00;;;-0.80;99.90;;;;;;7376846;19;23502;-70
2023/12/02 06:05:12;;;;;;;41.88;20.35;;;-0.90;99.90;;;;;;7379331;19;20094;-69
2023/12/02 06:07:44;;;;;;;46.17;20.52;;;-0.80;99.90;;;;;;7378986;19;20034;-69
2023/12/02 06:10:14;;;;;;;33.13;17.95;;;-0.90;99.90;;;;;;7378715;19;20010;-69
2023/12/02 06:12:44;;;;;;;38.45;19.08;;;-0.90;99.90;;;;;;7379713;19;20445;-69
2023/12/02 06:15:15;;;;;;;39.17;20.50;;;-1.00;99.90;;;;;;7378298;19;20014;-70
2023/12/02 06:17:45;;;;;;;39.25;18.73;;;-1.00;99.90;;;;;;7378195;19;20015;-69
2023/12/02 06:20:15;;;;;;;40.13;19.10;;;-1.00;99.90;;;;;;7377171;19;20090;-69
2023/12/02 06:22:48;;;;;;;43.45;18.95;;;-1.00;99.90;;;;;;7379403;19;20019;-70
2023/12/02 06:25:18;;;;;;;38.60;17.95;;;-1.00;99.90;;;;;;7374362;19;20023;-70
2023/12/02 06:27:48;;;;;;;38.05;18.15;;;-1.00;99.90;;;;;;7378207;19;20003;-69
2023/12/02 06:30:19;;;;;;;36.97;16.70;;;-1.10;99.90;;;;;;7377641;19;20010;-69
2023/12/02 06:32:49;;;;;;;32.25;15.98;;;-1.20;99.90;;;;;;7379122;19;20010;-70
2023/12/02 06:35:19;;;;;;;38.45;14.82;;;-1.20;99.90;;;;;;7375817;19;20035;-69
2023/12/02 06:37:51;;;;;;;33.10;15.75;;;-1.20;99.90;;;;;;7375574;19;20027;-69
2023/12/02 06:40:21;;;;;;;31.10;15.43;;;-1.20;99.90;;;;;;7376699;19;20523;-69
2023/12/02 06:42:51;;;;;;;33.72;16.00;;;-1.30;99.90;;;;;;7377661;19;20373;-69
2023/12/02 06:45:22;;;;;;;31.52;15.77;;;-1.30;99.90;;;;;;7376516;19;20019;-69
2023/12/02 06:47:52;;;;;;;27.88;15.25;;;-1.30;99.90;;;;;;7376205;19;20660;-69
2023/12/02 06:50:22;;;;;;;36.35;17.10;;;-1.30;99.90;;;;;;7379667;19;20010;-69
2023/12/02 06:52:54;;;;;;;37.25;16.88;;;-1.30;99.90;;;;;;7385449;19;20010;-69
2023/12/02 06:55:27;;;;;;;34.42;16.05;;;-1.30;99.90;;;;;;7381482;19;20608;-69
2023/12/02 06:58:00;;;;;;;29.42;14.82;;;-1.20;99.90;;;;;;7382223;19;20010;-68
2023/12/02 07:00:30;;;;;;;30.90;14.77;;;-1.30;99.90;;;;;;7383856;19;20459;-70
2023/12/02 07:03:01;;;;;;;34.53;14.75;;;-1.40;99.90;;;;;;7385001;19;20017;-69
2023/12/02 07:05:31;;;;;;;31.33;15.02;;;-1.40;99.90;;;;;;7382569;19;20027;-68
2023/12/02 07:08:04;;;;;;;32.83;14.82;;;-1.40;99.90;;;;;;7384281;19;20017;-69
2023/12/02 07:10:34;;;;;;;32.45;14.88;;;-1.40;99.90;;;;;;7383152;19;20010;-70
2023/12/02 07:13:04;;;;;;;27.27;13.02;;;-1.40;99.90;;;;;;7383906;19;20011;-69
2023/12/02 07:15:34;;;;;;;31.70;14.38;;;-1.40;99.90;;;;;;7384276;19;20034;-69
2023/12/02 07:18:04;;;;;;;29.25;14.13;;;-1.40;99.90;;;;;;7384131;19;20007;-70
2023/12/02 07:20:34;;;;;;;29.38;13.65;;;-1.40;99.90;;;;;;7384067;19;20019;-69
2023/12/02 07:23:07;;;;;;;29.77;14.82;;;-1.40;99.90;;;;;;7383134;19;20475;-68
2023/12/02 07:25:37;;;;;;;35.38;14.77;;;-1.40;99.90;;;;;;7382906;19;20074;-70
2023/12/02 07:28:07;;;;;;;31.00;14.98;;;-1.40;99.90;;;;;;7390530;19;20031;-67
2023/12/02 07:30:37;;;;;;;32.72;15.10;;;-1.40;99.90;;;;;;7398800;19;20050;-69
2023/12/02 07:33:07;;;;;;;28.80;15.05;;;-1.30;99.90;;;;;;7384854;19;20015;-69
2023/12/02 07:35:37;;;;;;;30.30;13.93;;;-1.40;99.90;;;;;;7380770;19;20082;-69
2023/12/02 07:38:10;;;;;;;34.95;14.70;;;-1.40;99.90;;;;;;7381779;19;20350;-69
2023/12/02 07:40:40;;;;;;;34.30;15.57;;;-1.40;99.90;;;;;;7383123;19;20010;-70
2023/12/02 07:43:10;;;;;;;30.48;14.20;;;-1.40;99.90;;;;;;7382921;19;20791;-70
2023/12/02 07:45:41;;;;;;;32.70;14.75;;;-1.50;99.90;;;;;;7381970;19;20022;-69
2023/12/02 07:48:12;;;;;;;29.25;13.75;;;-1.40;99.90;;;;;;7383979;19;20015;-70
2023/12/02 07:50:43;;;;;;;31.77;14.73;;;-1.40;99.90;;;;;;7383185;19;20027;-70
2023/12/02 07:53:15;;;;;;;31.88;15.43;;;-1.40;99.90;;;;;;7383467;19;20026;-69
2023/12/02 07:55:45;;;;;;;31.05;15.07;;;-1.40;99.90;;;;;;7382008;19;20011;-69
2023/12/02 07:58:16;;;;;;;31.73;14.98;;;-1.40;99.90;;;;;;7383210;19;20434;-68
2023/12/02 08:00:46;;;;;;;36.67;18.35;;;-1.40;99.90;;;;;;7382503;19;20018;-69
2023/12/02 08:03:16;;;;;;;33.83;15.60;;;-1.40;99.90;;;;;;7380290;19;20030;-69
2023/12/02 08:05:47;;;;;;;32.67;16.25;;;-1.40;99.90;;;;;;7381249;19;20412;-69
2023/12/02 08:08:19;;;;;;;30.30;15.07;;;-1.30;99.90;;;;;;7381995;19;20067;-69
2023/12/02 08:10:49;;;;;;;34.17;17.05;;;-1.40;99.90;;;;;;7381590;19;20015;-68
2023/12/02 08:13:19;;;;;;;32.67;15.75;;;-1.30;99.90;;;;;;7381569;19;20018;-69
2023/12/02 08:15:49;;;;;;;34.92;16.45;;;-1.30;99.90;;;;;;7380489;19;20021;-70
2023/12/02 08:18:21;;;;;;;30.55;16.23;;;-1.30;99.90;;;;;;7382661;19;20001;-69
2023/12/02 08:20:51;;;;;;;35.85;16.60;;;-1.30;99.90;;;;;;7381973;19;20130;-68
2023/12/02 08:23:24;;;;;;;34.63;16.25;;;-1.30;99.90;;;;;;7380986;19;20021;-69
2023/12/02 08:25:55;;;;;;;39.08;18.95;;;-1.30;99.90;;;;;;7380999;19;20014;-70
2023/12/02 08:28:26;;;;;;;35.83;18.50;;;-1.30;99.90;;;;;;7383351;19;20019;-68
2023/12/02 08:30:56;;;;;;;40.58;18.85;;;-1.30;99.90;;;;;;7381661;19;20010;-68
2023/12/02 08:33:26;;;;;;;32.72;16.30;;;-1.30;99.90;;;;;;7380280;19;20011;-68
2023/12/02 08:35:56;;;;;;;37.33;18.88;;;-1.30;99.90;;;;;;7380185;19;20014;-69
2023/12/02 08:38:28;;;;;;;35.53;16.67;;;-1.30;99.90;;;;;;7380068;19;20017;-69
2023/12/02 08:40:58;;;;;;;44.80;19.30;;;-1.30;99.90;;;;;;7380043;19;20010;-71
2023/12/02 08:43:29;;;;;;;34.28;16.85;;;-1.20;99.90;;;;;;7378826;19;20014;-69
2023/12/02 08:45:59;;;;;;;35.75;17.23;;;-1.30;99.90;;;;;;7379804;19;20010;-67
2023/12/02 08:48:29;;;;;;;35.03;17.77;;;-1.30;99.90;;;;;;7380645;19;20036;-69
2023/12/02 08:50:59;;;;;;;33.17;16.77;;;-1.20;99.50;;;;;;7379237;19;20006;-69
2023/12/02 08:53:31;;;;;;;32.40;16.35;;;-1.20;97.00;;;;;;7379844;19;20082;-70
2023/12/02 08:56:02;;;;;;;37.55;18.73;;;-1.30;95.30;;;;;;7379506;19;20371;-70
2023/12/02 08:58:32;;;;;;;32.80;16.63;;;-1.20;98.30;;;;;;7379972;19;20077;-69
2023/12/02 09:01:05;;;;;;;35.25;18.20;;;-1.20;96.10;;;;;;7380065;19;20005;-69
2023/12/02 09:03:36;;;;;;;35.78;16.90;;;-1.20;95.70;;;;;;7379257;19;20455;-68
2023/12/02 09:06:06;;;;;;;34.47;17.38;;;-1.30;93.30;;;;;;7378940;19;20010;-66
2023/12/02 09:08:39;;;;;;;31.60;17.08;;;-1.20;94.30;;;;;;7380026;19;20014;-68
2023/12/02 09:11:09;;;;;;;34.85;16.83;;;-1.20;93.40;;;;;;7378620;19;20018;-67
2023/12/02 09:13:46;;;;;;;32.58;16.13;;;-1.20;95.50;;;;;;7374861;19;20015;-67
2023/12/02 09:16:22;;;;;;;34.10;16.42;;;-1.10;98.30;;;;;;7377420;19;20526;-67
2023/12/02 09:18:52;;;;;;;31.00;15.95;;;-1.20;95.10;;;;;;7379069;19;20014;-68
2023/12/02 09:21:45;;;;;;;25.30;14.95;;;-1.20;98.00;;;;;;7379297;19;20002;-68
2023/12/02 09:24:38;;;;;;;27.60;14.63;;;-1.30;91.50;;;;;;6861192;19;2004044;-68
2023/12/02 09:27:10;;;;;;;26.45;14.95;;;-1.30;93.40;;;;;;6864085;19;2003937;-67
2023/12/02 09:29:41;;;;;;;28.17;14.18;;;-1.40;95.50;;;;;;7378931;19;20021;-68
2023/12/02 09:32:41;;;;;;;28.40;13.90;;;-1.40;92.30;;;;;;7378422;19;20007;-67
2023/12/02 09:35:16;;;;;;;25.92;12.98;;;-1.30;94.90;;;;;;6866950;19;2004781;-68
2023/12/02 09:38:06;;;;;;;26.67;14.20;;;-1.40;78.40;;;;;;7378417;19;20026;-67
2023/12/02 09:40:55;;;;;;;27.83;13.15;;;-1.40;85.60;;;;;;7372121;19;20014;-67
2023/12/02 09:43:32;;;;;;;26.65;13.57;;;-1.40;72.50;;;;;;7378028;19;20039;-67
2023/12/02 09:46:38;;;;;;;27.35;14.00;;;-1.40;73.50;;;;;;7373748;19;20090;-67
2023/12/02 09:49:43;;;;;;;33.53;15.98;;;-1.40;76.50;;;;;;7383418;19;20011;-67
2023/12/02 09:52:42;;;;;;;20.98;11.27;;;-1.40;77.20;;;;;;6865977;19;2004150;-67
2023/12/02 09:55:19;;;;;;;23.70;13.48;;;-1.50;66.70;;;;;;6865651;19;2004202;-67
2023/12/02 09:57:58;;;;;;;22.33;12.50;;;-1.30;67.30;;;;;;7377210;19;20016;-67
2023/12/02 10:00:38;;;;;;;25.60;13.68;;;-1.40;63.00;;;;;;7378781;19;20082;-67
2023/12/02 10:03:40;;;;;;;22.83;11.80;;;-1.40;57.60;;;;;;7372284;19;20022;-67
2023/12/02 10:06:26;;;;;;;28.02;13.65;;;-1.60;51.20;;;;;;6865930;19;2003996;-66
2023/12/02 10:09:08;;;;;;;26.55;13.23;;;-1.50;52.80;;;;;;7378412;19;20010;-68
2023/12/02 10:11:45;;;;;;;25.27;12.85;;;-1.40;55.20;;;;;;7375354;19;20030;-67
2023/12/02 10:14:21;;;;;;;26.27;14.70;;;-1.40;64.10;;;;;;7377324;19;20058;-68
2023/12/02 10:16:55;;;;;;;24.23;13.00;;;-1.40;55.30;;;;;;7377238;19;20085;-67
2023/12/02 10:19:33;;;;;;;23.55;12.80;;;-1.50;40.60;;;;;;7377775;19;20021;-68
2023/12/02 10:22:05;;;;;;;19.70;11.23;;;-1.50;29.50;;;;;;7373045;19;20014;-68
2023/12/02 10:24:46;;;;;;;25.38;11.65;;;-1.50;22.20;;;;;;7375807;19;20742;-67
2023/12/02 10:27:19;;;;;;;23.77;12.32;;;-1.40;25.00;;;;;;7377327;19;20018;-67
2023/12/02 10:30:03;;;;;;;22.83;12.02;;;-1.50;17.00;;;;;;7374004;19;20007;-67
2023/12/02 10:32:41;;;;;;;24.23;11.02;;;-1.50;18.40;;;;;;7373543;19;20067;-68
2023/12/02 10:35:19;;;;;;;23.00;12.48;;;-1.50;17.60;;;;;;7364633;19;20068;-68
2023/12/02 10:37:55;;;;;;;23.08;11.85;;;-1.30;28.90;;;;;;7374726;19;20367;-67
2023/12/02 10:40:29;;;;;;;19.80;11.50;;;-1.40;30.00;;;;;;7377206;19;20010;-67
2023/12/02 10:43:07;;;;;;;21.30;12.25;;;-1.40;25.40;;;;;;7375419;19;20015;-67
2023/12/02 10:45:43;;;;;;;21.25;12.93;;;-1.40;22.90;;;;;;7372907;19;20049;-68
2023/12/02 10:48:15;;;;;;;22.10;12.18;;;-1.40;20.00;;;;;;7376113;19;20470;-67
2023/12/02 10:50:48;;;;;;;20.60;11.00;;;-1.60;14.80;;;;;;7379198;19;20436;-68
2023/12/02 10:53:22;;;;;;;19.60;10.93;;;-1.40;18.00;;;;;;7376029;19;20014;-68
2023/12/02 10:55:57;;;;;;;19.17;11.07;;;-1.40;8.00;;;;;;7371463;19;20026;-68
2023/12/02 10:58:30;;;;;;;16.73;9.13;;;-1.30;10.80;;;;;;7371446;19;20007;-67
2023/12/02 11:01:08;;;;;;;16.23;10.00;;;-1.40;1.00;;;;;;7375582;19;20078;-67
2023/12/02 11:03:52;;;;;;;20.63;12.02;;;-1.20;1.00;;;;;;7375032;19;20006;-68
2023/12/02 11:06:30;;;;;;;21.55;11.30;;;-1.20;1.00;;;;;;7375847;19;20030;-68
2023/12/02 11:09:10;;;;;;;18.33;10.63;;;-1.10;1.00;;;;;;7374238;19;20328;-67
2023/12/02 11:11:51;;;;;;;18.88;11.48;;;-1.30;1.00;;;;;;7375173;19;20082;-68
2023/12/02 11:14:24;;;;;;;16.67;10.13;;;-1.30;1.00;;;;;;7375118;19;20007;-68
2023/12/02 11:17:09;;;;;;;17.30;9.10;;;-1.20;1.00;;;;;;7371608;19;20007;-68
2023/12/02 11:19:59;;;;;;;17.80;8.85;;;-1.30;1.00;;;;;;7373043;19;20018;-68
2023/12/02 11:22:46;;;;;;;14.55;8.27;;;-1.40;1.00;;;;;;7376233;19;20015;-69
2023/12/02 11:25:30;;;;;;;14.70;8.98;;;-1.50;1.00;;;;;;6859143;19;2003993;-67
2023/12/02 11:28:06;;;;;;;15.93;9.07;;;-1.40;1.00;;;;;;7373805;19;20011;-68
2023/12/02 11:30:58;;;;;;;14.70;8.15;;;-1.40;1.00;;;;;;7375155;19;20027;-68
2023/12/02 11:33:43;;;;;;;16.90;9.32;;;-1.60;1.00;;;;;;7372989;19;20345;-68
2023/12/02 11:36:20;;;;;;;14.15;7.35;;;-1.40;1.00;;;;;;6865220;19;2004799;-68
2023/12/02 11:39:04;;;;;;;13.57;8.32;;;-1.50;1.00;;;;;;7382755;19;20010;-68
2023/12/02 11:41:45;;;;;;;15.10;7.82;;;-1.50;1.00;;;;;;7382880;19;20027;-68
2023/12/02 11:44:22;;;;;;;10.32;7.25;;;-1.50;1.00;;;;;;7384603;19;20007;-67
2023/12/02 11:47:20;;;;;;;12.15;7.55;;;-1.50;1.00;;;;;;7382510;19;20015;-68
2023/12/02 11:50:17;;;;;;;12.73;8.27;;;-1.50;1.00;;;;;;6877632;19;2004812;-68
2023/12/02 11:53:03;;;;;;;10.90;5.85;;;-1.40;1.00;;;;;;6872185;19;2004854;-68
2023/12/02 11:55:39;;;;;;;14.05;7.75;;;-1.50;1.00;;;;;;7383521;19;20006;-68
2023/12/02 11:58:16;;;;;;;11.40;7.30;;;-1.50;1.00;;;;;;7381925;19;20078;-68
2023/12/02 12:01:03;;;;;;;15.27;7.43;;;-1.50;1.00;;;;;;7382868;19;20014;-68
2023/12/02 12:03:46;;;;;;;13.05;8.15;;;-1.50;1.00;;;;;;7382547;19;20041;-68
2023/12/02 12:06:36;;;;;;;10.55;6.72;;;-1.50;1.00;;;;;;6878120;19;2004076;-67
2023/12/02 12:09:18;;;;;;;13.75;7.70;;;-1.50;1.00;;;;;;7386189;19;20018;-68
2023/12/02 12:11:49;;;;;;;13.57;8.10;;;-1.50;1.00;;;;;;7382396;19;20019;-68
2023/12/02 12:14:21;;;;;;;13.05;8.00;;;-1.40;1.00;;;;;;7382432;19;21029;-69
2023/12/02 12:16:52;;;;;;;14.45;7.80;;;-1.50;1.00;;;;;;7380241;19;20014;-68
2023/12/02 12:19:22;;;;;;;12.20;6.95;;;-1.40;1.00;;;;;;7381728;19;20022;-70
2023/12/02 12:21:55;;;;;;;12.90;7.50;;;-1.60;1.00;;;;;;7382154;19;20014;-69
2023/12/02 12:24:25;;;;;;;14.73;8.60;;;-1.60;1.00;;;;;;7383184;19;20007;-69
2023/12/02 12:26:55;;;;;;;12.30;8.05;;;-1.60;1.00;;;;;;7382079;19;20003;-69
2023/12/02 12:29:25;;;;;;;12.52;7.30;;;-1.50;1.00;;;;;;7382237;19;20023;-69
2023/12/02 12:31:59;;;;;;;12.02;7.50;;;-1.50;1.00;;;;;;7380907;19;20123;-67
2023/12/02 12:34:29;;;;;;;15.52;8.85;;;-1.50;1.00;;;;;;7383242;19;20694;-68
2023/12/02 12:37:02;;;;;;;13.88;8.30;;;-1.40;1.00;;;;;;7380264;19;20039;-68
2023/12/02 12:39:33;;;;;;;15.40;8.98;;;-1.50;1.00;;;;;;7377437;19;20356;-68
2023/12/02 12:42:03;;;;;;;11.30;7.60;;;-1.40;1.00;;;;;;7382259;19;20388;-67
2023/12/02 12:44:34;;;;;;;11.82;7.88;;;-1.40;1.00;;;;;;7379503;19;20007;-69
2023/12/02 12:47:05;;;;;;;12.65;7.93;;;-1.50;1.00;;;;;;7381645;19;20440;-68
2023/12/02 12:49:40;;;;;;;14.10;8.43;;;-1.40;1.00;;;;;;7381421;19;20013;-68
2023/12/02 12:52:15;;;;;;;11.95;7.93;;;-1.40;1.00;;;;;;7377234;19;20060;-69
2023/12/02 12:54:53;;;;;;;14.02;7.80;;;-1.40;1.00;;;;;;7377920;19;20098;-68
2023/12/02 12:57:34;;;;;;;14.43;8.57;;;-1.50;1.00;;;;;;7380723;19;20443;-69
2023/12/02 13:00:03;;;;;;;12.88;8.35;;;-1.40;1.00;;;;;;7378236;19;20007;-68